sensor_id;sensor_type;location;lat;lon;timestamp;temperature;humidity
47174;DHT22;36730;49.036;9.094;2023-08-08T00:00:02;24.30;60.50
47174;DHT22;36730;49.036;9.094;2023-08-08T00:02:28;24.30;60.60
47174;DHT22;36730;49.036;9.094;2023-08-08T00:04:54;24.30;60.40
47174;DHT22;36730;49.036;9.094;2023-08-08T00:07:19;24.40;60.30
47174;DHT22;36730;49.036;9.094;2023-08-08T00:09:45;24.30;60.40
47174;DHT22;36730;49.036;9.094;2023-08-08T00:12:10;24.40;60.40
47174;DHT22;36730;49.036;9.094;2023-08-08T00:14:36;24.40;60.40
47174;DHT22;36730;49.036;9.094;2023-08-08T00:17:01;24.40;60.30
47174;DHT22;36730;49.036;9.094;2023-08-08T00:19:27;24.40;60.40
47174;DHT22;36730;49.036;9.094;2023-08-08T00:21:52;24.40;60.30
47174;DHT22;36730;49.036;9.094;2023-08-08T00:24:18;24.30;60.30
47174;DHT22;36730;49.036;9.094;2023-08-08T00:26:43;24.40;60.40
47174;DHT22;36730;49.036;9.094;2023-08-08T00:29:09;24.40;61.10
47174;DHT22;36730;49.036;9.094;2023-08-08T00:31:34;24.40;60.50
47174;DHT22;36730;49.036;9.094;2023-08-08T00:34:00;24.40;60.40
47174;DHT22;36730;49.036;9.094;2023-08-08T00:36:25;24.30;60.30
47174;DHT22;36730;49.036;9.094;2023-08-08T00:38:51;24.30;60.30
47174;DHT22;36730;49.036;9.094;2023-08-08T00:41:16;24.30;60.40
47174;DHT22;36730;49.036;9.094;2023-08-08T00:43:41;24.30;60.40
47174;DHT22;36730;49.036;9.094;2023-08-08T00:46:08;24.30;60.50
47174;DHT22;36730;49.036;9.094;2023-08-08T00:48:34;24.30;60.60
47174;DHT22;36730;49.036;9.094;2023-08-08T00:50:59;24.30;60.60
47174;DHT22;36730;49.036;9.094;2023-08-08T00:53:25;24.30;60.70
47174;DHT22;36730;49.036;9.094;2023-08-08T00:55:53;24.30;60.70
47174;DHT22;36730;49.036;9.094;2023-08-08T00:58:19;24.30;60.60
47174;DHT22;36730;49.036;9.094;2023-08-08T01:00:45;24.30;60.60
47174;DHT22;36730;49.036;9.094;2023-08-08T01:03:10;24.30;60.70
47174;DHT22;36730;49.036;9.094;2023-08-08T01:05:38;24.30;60.70
47174;DHT22;36730;49.036;9.094;2023-08-08T01:08:07;24.30;60.50
47174;DHT22;36730;49.036;9.094;2023-08-08T01:10:39;24.30;60.70
47174;DHT22;36730;49.036;9.094;2023-08-08T01:13:10;24.30;60.70
47174;DHT22;36730;49.036;9.094;2023-08-08T01:15:37;24.20;60.70
47174;DHT22;36730;49.036;9.094;2023-08-08T01:18:03;24.30;60.60
47174;DHT22;36730;49.036;9.094;2023-08-08T01:20:29;24.30;60.70
47174;DHT22;36730;49.036;9.094;2023-08-08T01:22:58;24.30;60.70
47174;DHT22;36730;49.036;9.094;2023-08-08T01:25:27;24.20;60.80
47174;DHT22;36730;49.036;9.094;2023-08-08T01:27:53;24.20;60.70
47174;DHT22;36730;49.036;9.094;2023-08-08T01:30:19;24.20;60.60
47174;DHT22;36730;49.036;9.094;2023-08-08T01:32:44;24.20;60.70
47174;DHT22;36730;49.036;9.094;2023-08-08T01:35:10;24.20;60.90
47174;DHT22;36730;49.036;9.094;2023-08-08T01:37:36;24.20;60.90
47174;DHT22;36730;49.036;9.094;2023-08-08T01:40:04;24.20;61.00
47174;DHT22;36730;49.036;9.094;2023-08-08T01:42:30;24.20;61.00
47174;DHT22;36730;49.036;9.094;2023-08-08T01:44:56;24.20;60.90
47174;DHT22;36730;49.036;9.094;2023-08-08T01:47:22;24.20;61.10
47174;DHT22;36730;49.036;9.094;2023-08-08T01:49:47;24.20;61.00
47174;DHT22;36730;49.036;9.094;2023-08-08T01:52:13;24.20;61.00
47174;DHT22;36730;49.036;9.094;2023-08-08T01:54:38;24.20;61.00
47174;DHT22;36730;49.036;9.094;2023-08-08T01:57:04;24.20;61.00
47174;DHT22;36730;49.036;9.094;2023-08-08T01:59:29;24.20;61.00
47174;DHT22;36730;49.036;9.094;2023-08-08T02:01:55;24.20;61.10
47174;DHT22;36730;49.036;9.094;2023-08-08T02:04:20;24.20;61.00
47174;DHT22;36730;49.036;9.094;2023-08-08T02:06:46;24.20;61.00
47174;DHT22;36730;49.036;9.094;2023-08-08T02:09:11;24.20;61.00
47174;DHT22;36730;49.036;9.094;2023-08-08T02:11:39;24.20;61.10
47174;DHT22;36730;49.036;9.094;2023-08-08T02:14:05;24.20;61.00
47174;DHT22;36730;49.036;9.094;2023-08-08T02:16:30;24.20;61.00
47174;DHT22;36730;49.036;9.094;2023-08-08T02:18:56;24.20;61.10
47174;DHT22;36730;49.036;9.094;2023-08-08T02:21:21;24.10;61.10
47174;DHT22;36730;49.036;9.094;2023-08-08T02:23:47;24.10;61.10
47174;DHT22;36730;49.036;9.094;2023-08-08T02:26:12;24.10;61.20
47174;DHT22;36730;49.036;9.094;2023-08-08T02:28:38;24.10;61.30
47174;DHT22;36730;49.036;9.094;2023-08-08T02:31:03;24.10;61.30
47174;DHT22;36730;49.036;9.094;2023-08-08T02:33:29;24.10;61.30
47174;DHT22;36730;49.036;9.094;2023-08-08T02:35:54;24.10;61.30
47174;DHT22;36730;49.036;9.094;2023-08-08T02:38:20;24.10;61.30
47174;DHT22;36730;49.036;9.094;2023-08-08T02:40:45;24.10;61.30
47174;DHT22;36730;49.036;9.094;2023-08-08T02:43:10;24.10;61.40
47174;DHT22;36730;49.036;9.094;2023-08-08T02:45:36;24.10;61.30
47174;DHT22;36730;49.036;9.094;2023-08-08T02:48:02;24.10;61.30
47174;DHT22;36730;49.036;9.094;2023-08-08T02:50:27;24.10;61.30
47174;DHT22;36730;49.036;9.094;2023-08-08T02:52:53;24.10;61.40
47174;DHT22;36730;49.036;9.094;2023-08-08T02:55:18;24.00;61.20
47174;DHT22;36730;49.036;9.094;2023-08-08T02:57:44;24.10;61.30
47174;DHT22;36730;49.036;9.094;2023-08-08T03:00:10;24.10;61.30
47174;DHT22;36730;49.036;9.094;2023-08-08T03:02:36;24.10;61.30
47174;DHT22;36730;49.036;9.094;2023-08-08T03:05:02;24.00;61.40
47174;DHT22;36730;49.036;9.094;2023-08-08T03:07:27;24.00;61.50
47174;DHT22;36730;49.036;9.094;2023-08-08T03:09:53;24.00;61.60
47174;DHT22;36730;49.036;9.094;2023-08-08T03:12:18;24.00;61.50
47174;DHT22;36730;49.036;9.094;2023-08-08T03:14:44;24.00;61.70
47174;DHT22;36730;49.036;9.094;2023-08-08T03:17:09;24.00;61.50
47174;DHT22;36730;49.036;9.094;2023-08-08T03:19:35;24.00;61.70
47174;DHT22;36730;49.036;9.094;2023-08-08T03:22:00;24.00;61.60
47174;DHT22;36730;49.036;9.094;2023-08-08T03:24:25;24.00;62.00
47174;DHT22;36730;49.036;9.094;2023-08-08T03:26:51;24.10;61.80
47174;DHT22;36730;49.036;9.094;2023-08-08T03:29:16;24.00;61.70
47174;DHT22;36730;49.036;9.094;2023-08-08T03:31:42;24.00;61.70
47174;DHT22;36730;49.036;9.094;2023-08-08T03:34:07;24.00;61.80
47174;DHT22;36730;49.036;9.094;2023-08-08T03:36:33;24.00;62.40
47174;DHT22;36730;49.036;9.094;2023-08-08T03:38:58;24.00;62.00
47174;DHT22;36730;49.036;9.094;2023-08-08T03:41:24;24.00;62.10
47174;DHT22;36730;49.036;9.094;2023-08-08T03:43:49;24.00;62.20
47174;DHT22;36730;49.036;9.094;2023-08-08T03:46:15;24.00;62.10
47174;DHT22;36730;49.036;9.094;2023-08-08T03:48:40;24.00;62.60
47174;DHT22;36730;49.036;9.094;2023-08-08T03:51:06;23.90;63.10
47174;DHT22;36730;49.036;9.094;2023-08-08T03:53:32;23.90;62.50
47174;DHT22;36730;49.036;9.094;2023-08-08T03:55:58;23.90;62.60
47174;DHT22;36730;49.036;9.094;2023-08-08T03:58:23;23.90;62.60
47174;DHT22;36730;49.036;9.094;2023-08-08T04:00:49;23.90;62.50
47174;DHT22;36730;49.036;9.094;2023-08-08T04:03:15;23.90;62.60
47174;DHT22;36730;49.036;9.094;2023-08-08T04:05:41;23.90;63.60
47174;DHT22;36730;49.036;9.094;2023-08-08T04:08:06;23.90;63.20
47174;DHT22;36730;49.036;9.094;2023-08-08T04:10:32;23.90;62.80
47174;DHT22;36730;49.036;9.094;2023-08-08T04:12:57;23.90;63.00
47174;DHT22;36730;49.036;9.094;2023-08-08T04:15:23;23.90;62.90
47174;DHT22;36730;49.036;9.094;2023-08-08T04:17:49;23.90;63.00
47174;DHT22;36730;49.036;9.094;2023-08-08T04:20:14;23.80;63.40
47174;DHT22;36730;49.036;9.094;2023-08-08T04:22:40;23.80;63.60
47174;DHT22;36730;49.036;9.094;2023-08-08T04:25:05;23.80;63.30
47174;DHT22;36730;49.036;9.094;2023-08-08T04:27:31;23.80;63.50
47174;DHT22;36730;49.036;9.094;2023-08-08T04:29:57;23.80;63.50
47174;DHT22;36730;49.036;9.094;2023-08-08T04:32:22;23.80;63.50
47174;DHT22;36730;49.036;9.094;2023-08-08T04:34:48;23.80;63.50
47174;DHT22;36730;49.036;9.094;2023-08-08T04:37:13;23.80;63.50
47174;DHT22;36730;49.036;9.094;2023-08-08T04:39:39;23.80;63.40
47174;DHT22;36730;49.036;9.094;2023-08-08T04:42:04;23.80;63.60
47174;DHT22;36730;49.036;9.094;2023-08-08T04:44:30;23.80;63.60
47174;DHT22;36730;49.036;9.094;2023-08-08T04:46:55;23.80;63.40
47174;DHT22;36730;49.036;9.094;2023-08-08T04:49:21;23.80;63.50
47174;DHT22;36730;49.036;9.094;2023-08-08T04:51:46;23.80;64.00
47174;DHT22;36730;49.036;9.094;2023-08-08T04:54:12;23.90;63.80
47174;DHT22;36730;49.036;9.094;2023-08-08T04:56:37;23.90;63.40
47174;DHT22;36730;49.036;9.094;2023-08-08T04:59:03;23.90;63.30
47174;DHT22;36730;49.036;9.094;2023-08-08T05:01:28;23.90;62.20
47174;DHT22;36730;49.036;9.094;2023-08-08T05:03:54;23.90;63.10
47174;DHT22;36730;49.036;9.094;2023-08-08T05:06:19;23.80;63.10
47174;DHT22;36730;49.036;9.094;2023-08-08T05:08:45;23.80;63.10
47174;DHT22;36730;49.036;9.094;2023-08-08T05:11:10;23.90;63.10
47174;DHT22;36730;49.036;9.094;2023-08-08T05:13:35;23.90;63.00
47174;DHT22;36730;49.036;9.094;2023-08-08T05:16:01;23.80;63.10
47174;DHT22;36730;49.036;9.094;2023-08-08T05:18:26;23.80;62.80
47174;DHT22;36730;49.036;9.094;2023-08-08T05:20:52;23.80;63.30
47174;DHT22;36730;49.036;9.094;2023-08-08T05:23:17;23.80;63.00
47174;DHT22;36730;49.036;9.094;2023-08-08T05:25:43;23.90;62.60
47174;DHT22;36730;49.036;9.094;2023-08-08T05:28:08;23.90;62.60
47174;DHT22;36730;49.036;9.094;2023-08-08T05:30:34;23.90;62.90
47174;DHT22;36730;49.036;9.094;2023-08-08T05:32:59;23.90;63.10
47174;DHT22;36730;49.036;9.094;2023-08-08T05:35:25;24.00;62.80
47174;DHT22;36730;49.036;9.094;2023-08-08T05:37:50;24.00;62.70
47174;DHT22;36730;49.036;9.094;2023-08-08T05:40:16;24.00;63.00
47174;DHT22;36730;49.036;9.094;2023-08-08T05:42:41;24.00;62.60
47174;DHT22;36730;49.036;9.094;2023-08-08T05:45:07;24.00;63.30
47174;DHT22;36730;49.036;9.094;2023-08-08T05:47:33;24.00;63.20
47174;DHT22;36730;49.036;9.094;2023-08-08T05:49:58;24.00;62.30
47174;DHT22;36730;49.036;9.094;2023-08-08T05:52:24;24.00;61.70
47174;DHT22;36730;49.036;9.094;2023-08-08T05:54:50;24.00;61.80
47174;DHT22;36730;49.036;9.094;2023-08-08T05:57:15;24.00;61.60
47174;DHT22;36730;49.036;9.094;2023-08-08T05:59:41;23.90;61.60
47174;DHT22;36730;49.036;9.094;2023-08-08T06:02:06;23.90;62.50
47174;DHT22;36730;49.036;9.094;2023-08-08T06:04:32;23.90;63.00
47174;DHT22;36730;49.036;9.094;2023-08-08T06:06:57;24.00;62.70
47174;DHT22;36730;49.036;9.094;2023-08-08T06:09:24;24.00;62.90
47174;DHT22;36730;49.036;9.094;2023-08-08T06:11:49;24.00;63.20
47174;DHT22;36730;49.036;9.094;2023-08-08T06:14:15;24.00;63.20
47174;DHT22;36730;49.036;9.094;2023-08-08T06:16:41;24.10;63.50
47174;DHT22;36730;49.036;9.094;2023-08-08T06:19:06;24.10;63.30
47174;DHT22;36730;49.036;9.094;2023-08-08T06:21:32;24.10;63.30
47174;DHT22;36730;49.036;9.094;2023-08-08T06:23:57;24.20;63.10
47174;DHT22;36730;49.036;9.094;2023-08-08T06:26:23;24.20;63.40
47174;DHT22;36730;49.036;9.094;2023-08-08T06:28:49;24.20;63.60
47174;DHT22;36730;49.036;9.094;2023-08-08T06:31:17;24.20;63.80
47174;DHT22;36730;49.036;9.094;2023-08-08T06:33:42;24.20;63.80
47174;DHT22;36730;49.036;9.094;2023-08-08T06:36:08;24.30;63.80
47174;DHT22;36730;49.036;9.094;2023-08-08T06:38:33;24.30;64.00
47174;DHT22;36730;49.036;9.094;2023-08-08T06:40:59;24.30;63.90
47174;DHT22;36730;49.036;9.094;2023-08-08T06:43:25;24.40;64.10
47174;DHT22;36730;49.036;9.094;2023-08-08T06:45:51;24.40;63.80
47174;DHT22;36730;49.036;9.094;2023-08-08T06:48:16;24.40;63.60
47174;DHT22;36730;49.036;9.094;2023-08-08T06:50:42;24.50;63.70
47174;DHT22;36730;49.036;9.094;2023-08-08T06:53:08;24.60;63.70
47174;DHT22;36730;49.036;9.094;2023-08-08T06:55:33;24.60;63.70
47174;DHT22;36730;49.036;9.094;2023-08-08T06:57:59;24.60;63.80
47174;DHT22;36730;49.036;9.094;2023-08-08T07:00:24;24.70;63.70
47174;DHT22;36730;49.036;9.094;2023-08-08T07:02:52;24.70;64.20
47174;DHT22;36730;49.036;9.094;2023-08-08T07:05:18;24.70;64.10
47174;DHT22;36730;49.036;9.094;2023-08-08T07:07:43;24.70;63.90
47174;DHT22;36730;49.036;9.094;2023-08-08T07:10:10;24.80;63.90
47174;DHT22;36730;49.036;9.094;2023-08-08T07:12:37;24.80;64.20
47174;DHT22;36730;49.036;9.094;2023-08-08T07:15:03;24.80;64.20
47174;DHT22;36730;49.036;9.094;2023-08-08T07:17:28;24.80;64.30
47174;DHT22;36730;49.036;9.094;2023-08-08T07:19:54;24.80;64.60
47174;DHT22;36730;49.036;9.094;2023-08-08T07:22:19;24.80;64.40
47174;DHT22;36730;49.036;9.094;2023-08-08T07:24:45;24.80;64.00
47174;DHT22;36730;49.036;9.094;2023-08-08T07:27:11;24.90;64.10
47174;DHT22;36730;49.036;9.094;2023-08-08T07:29:36;25.00;64.10
47174;DHT22;36730;49.036;9.094;2023-08-08T07:32:05;25.00;63.90
47174;DHT22;36730;49.036;9.094;2023-08-08T07:34:31;25.00;63.90
47174;DHT22;36730;49.036;9.094;2023-08-08T07:36:57;25.00;63.60
47174;DHT22;36730;49.036;9.094;2023-08-08T07:39:23;25.00;63.40
47174;DHT22;36730;49.036;9.094;2023-08-08T07:41:49;25.10;63.60
47174;DHT22;36730;49.036;9.094;2023-08-08T07:44:15;25.10;63.40
47174;DHT22;36730;49.036;9.094;2023-08-08T07:46:41;25.10;62.90
47174;DHT22;36730;49.036;9.094;2023-08-08T07:49:06;25.10;62.90
47174;DHT22;36730;49.036;9.094;2023-08-08T07:51:32;25.10;62.60
47174;DHT22;36730;49.036;9.094;2023-08-08T07:53:58;25.10;62.30
47174;DHT22;36730;49.036;9.094;2023-08-08T07:56:23;25.20;62.90
47174;DHT22;36730;49.036;9.094;2023-08-08T07:58:49;25.20;61.90
47174;DHT22;36730;49.036;9.094;2023-08-08T08:01:14;25.30;61.70
47174;DHT22;36730;49.036;9.094;2023-08-08T08:03:40;25.30;61.60
47174;DHT22;36730;49.036;9.094;2023-08-08T08:06:06;25.30;61.20
47174;DHT22;36730;49.036;9.094;2023-08-08T08:08:32;25.30;61.10
47174;DHT22;36730;49.036;9.094;2023-08-08T08:10:57;25.40;61.30
47174;DHT22;36730;49.036;9.094;2023-08-08T08:13:23;25.40;61.20
47174;DHT22;36730;49.036;9.094;2023-08-08T08:15:48;25.40;61.00
47174;DHT22;36730;49.036;9.094;2023-08-08T08:18:14;25.40;60.80
47174;DHT22;36730;49.036;9.094;2023-08-08T08:20:42;25.40;60.60
47174;DHT22;36730;49.036;9.094;2023-08-08T08:23:09;25.40;60.30
47174;DHT22;36730;49.036;9.094;2023-08-08T08:25:34;25.30;60.40
47174;DHT22;36730;49.036;9.094;2023-08-08T08:28:00;25.40;60.30
47174;DHT22;36730;49.036;9.094;2023-08-08T08:30:25;25.40;60.50
47174;DHT22;36730;49.036;9.094;2023-08-08T08:32:52;25.40;60.30
47174;DHT22;36730;49.036;9.094;2023-08-08T08:35:17;25.50;60.20
47174;DHT22;36730;49.036;9.094;2023-08-08T08:37:43;25.50;60.00
47174;DHT22;36730;49.036;9.094;2023-08-08T08:40:09;25.50;60.10
47174;DHT22;36730;49.036;9.094;2023-08-08T08:42:35;25.50;60.10
47174;DHT22;36730;49.036;9.094;2023-08-08T08:45:01;25.50;60.10
47174;DHT22;36730;49.036;9.094;2023-08-08T08:47:27;25.60;60.70
47174;DHT22;36730;49.036;9.094;2023-08-08T08:49:54;25.60;60.00
47174;DHT22;36730;49.036;9.094;2023-08-08T08:52:20;25.70;60.10
47174;DHT22;36730;49.036;9.094;2023-08-08T08:54:46;25.70;59.90
47174;DHT22;36730;49.036;9.094;2023-08-08T08:57:11;25.70;59.60
47174;DHT22;36730;49.036;9.094;2023-08-08T08:59:37;25.70;59.90
47174;DHT22;36730;49.036;9.094;2023-08-08T09:02:02;25.70;59.40
47174;DHT22;36730;49.036;9.094;2023-08-08T09:04:28;25.80;59.80
47174;DHT22;36730;49.036;9.094;2023-08-08T09:06:54;25.80;59.60
47174;DHT22;36730;49.036;9.094;2023-08-08T09:09:20;25.80;59.20
47174;DHT22;36730;49.036;9.094;2023-08-08T09:11:48;25.80;59.10
47174;DHT22;36730;49.036;9.094;2023-08-08T09:14:15;25.90;59.30
47174;DHT22;36730;49.036;9.094;2023-08-08T09:16:42;25.90;59.20
47174;DHT22;36730;49.036;9.094;2023-08-08T09:19:07;25.80;59.30
47174;DHT22;36730;49.036;9.094;2023-08-08T09:21:33;25.80;58.80
47174;DHT22;36730;49.036;9.094;2023-08-08T09:23:58;25.80;59.00
47174;DHT22;36730;49.036;9.094;2023-08-08T09:26:23;25.90;58.90
47174;DHT22;36730;49.036;9.094;2023-08-08T09:28:49;25.90;59.10
47174;DHT22;36730;49.036;9.094;2023-08-08T09:31:16;25.90;59.10
47174;DHT22;36730;49.036;9.094;2023-08-08T09:33:41;26.00;59.10
47174;DHT22;36730;49.036;9.094;2023-08-08T09:36:13;26.00;59.00
47174;DHT22;36730;49.036;9.094;2023-08-08T09:38:38;26.00;58.80
47174;DHT22;36730;49.036;9.094;2023-08-08T09:41:04;26.00;58.80
47174;DHT22;36730;49.036;9.094;2023-08-08T09:43:29;26.10;59.10
47174;DHT22;36730;49.036;9.094;2023-08-08T09:45:55;26.10;59.00
47174;DHT22;36730;49.036;9.094;2023-08-08T09:48:20;26.20;57.60
47174;DHT22;36730;49.036;9.094;2023-08-08T09:50:46;26.10;57.00
47174;DHT22;36730;49.036;9.094;2023-08-08T09:53:12;26.20;58.60
47174;DHT22;36730;49.036;9.094;2023-08-08T09:55:38;26.20;57.30
47174;DHT22;36730;49.036;9.094;2023-08-08T09:58:04;26.10;56.20
47174;DHT22;36730;49.036;9.094;2023-08-08T10:00:30;26.20;56.60
47174;DHT22;36730;49.036;9.094;2023-08-08T10:02:56;26.20;56.60
47174;DHT22;36730;49.036;9.094;2023-08-08T10:05:22;26.20;56.80
47174;DHT22;36730;49.036;9.094;2023-08-08T10:07:48;26.30;57.20
47174;DHT22;36730;49.036;9.094;2023-08-08T10:10:13;26.40;57.20
47174;DHT22;36730;49.036;9.094;2023-08-08T10:12:39;26.40;56.60
47174;DHT22;36730;49.036;9.094;2023-08-08T10:15:08;26.40;55.40
47174;DHT22;36730;49.036;9.094;2023-08-08T10:17:35;26.50;54.90
47174;DHT22;36730;49.036;9.094;2023-08-08T10:20:01;26.50;54.40
47174;DHT22;36730;49.036;9.094;2023-08-08T10:22:34;26.40;55.10
47174;DHT22;36730;49.036;9.094;2023-08-08T10:25:03;26.40;54.70
47174;DHT22;36730;49.036;9.094;2023-08-08T10:27:35;26.40;54.60
47174;DHT22;36730;49.036;9.094;2023-08-08T10:30:01;26.40;55.50
47174;DHT22;36730;49.036;9.094;2023-08-08T10:32:27;26.40;55.00
47174;DHT22;36730;49.036;9.094;2023-08-08T10:34:54;26.50;55.30
47174;DHT22;36730;49.036;9.094;2023-08-08T10:37:20;26.50;55.10
47174;DHT22;36730;49.036;9.094;2023-08-08T10:39:52;26.60;55.30
47174;DHT22;36730;49.036;9.094;2023-08-08T10:42:19;26.60;54.30
47174;DHT22;36730;49.036;9.094;2023-08-08T10:44:50;26.70;54.70
47174;DHT22;36730;49.036;9.094;2023-08-08T10:47:21;26.70;54.40
47174;DHT22;36730;49.036;9.094;2023-08-08T10:49:55;26.80;54.60
47174;DHT22;36730;49.036;9.094;2023-08-08T10:52:21;26.80;54.80
47174;DHT22;36730;49.036;9.094;2023-08-08T10:54:51;26.90;54.70
47174;DHT22;36730;49.036;9.094;2023-08-08T10:57:17;26.90;54.70
47174;DHT22;36730;49.036;9.094;2023-08-08T10:59:44;27.00;55.30
47174;DHT22;36730;49.036;9.094;2023-08-08T11:02:10;27.00;54.90
47174;DHT22;36730;49.036;9.094;2023-08-08T11:04:35;27.10;55.00
47174;DHT22;36730;49.036;9.094;2023-08-08T11:07:01;27.10;54.80
47174;DHT22;36730;49.036;9.094;2023-08-08T11:09:26;27.10;54.30
47174;DHT22;36730;49.036;9.094;2023-08-08T11:11:52;27.20;54.30
47174;DHT22;36730;49.036;9.094;2023-08-08T11:14:18;27.20;54.30
47174;DHT22;36730;49.036;9.094;2023-08-08T11:16:44;27.20;53.80
47174;DHT22;36730;49.036;9.094;2023-08-08T11:19:10;27.20;54.40
47174;DHT22;36730;49.036;9.094;2023-08-08T11:21:39;27.30;54.00
47174;DHT22;36730;49.036;9.094;2023-08-08T11:24:05;27.30;55.30
47174;DHT22;36730;49.036;9.094;2023-08-08T11:26:31;27.30;53.50
47174;DHT22;36730;49.036;9.094;2023-08-08T11:29:00;27.30;53.70
47174;DHT22;36730;49.036;9.094;2023-08-08T11:31:26;27.30;53.40
47174;DHT22;36730;49.036;9.094;2023-08-08T11:33:55;27.40;53.60
47174;DHT22;36730;49.036;9.094;2023-08-08T11:36:21;27.40;53.30
47174;DHT22;36730;49.036;9.094;2023-08-08T11:38:47;27.40;53.20
47174;DHT22;36730;49.036;9.094;2023-08-08T11:41:15;27.50;53.30
47174;DHT22;36730;49.036;9.094;2023-08-08T11:43:41;27.60;53.10
47174;DHT22;36730;49.036;9.094;2023-08-08T11:46:13;27.50;52.90
47174;DHT22;36730;49.036;9.094;2023-08-08T11:48:39;27.50;53.80
47174;DHT22;36730;49.036;9.094;2023-08-08T11:51:05;27.60;52.70
47174;DHT22;36730;49.036;9.094;2023-08-08T11:53:30;27.60;53.20
47174;DHT22;36730;49.036;9.094;2023-08-08T11:55:56;27.60;54.00
47174;DHT22;36730;49.036;9.094;2023-08-08T11:58:26;27.60;52.00
47174;DHT22;36730;49.036;9.094;2023-08-08T12:00:51;27.60;52.00
47174;DHT22;36730;49.036;9.094;2023-08-08T12:03:20;27.70;53.00
47174;DHT22;36730;49.036;9.094;2023-08-08T12:05:46;27.70;52.30
47174;DHT22;36730;49.036;9.094;2023-08-08T12:08:12;27.70;52.10
47174;DHT22;36730;49.036;9.094;2023-08-08T12:10:38;27.70;51.90
47174;DHT22;36730;49.036;9.094;2023-08-08T12:13:03;27.70;51.20
47174;DHT22;36730;49.036;9.094;2023-08-08T12:15:31;27.70;51.90
47174;DHT22;36730;49.036;9.094;2023-08-08T12:17:57;27.70;51.70
47174;DHT22;36730;49.036;9.094;2023-08-08T12:20:23;27.80;51.80
47174;DHT22;36730;49.036;9.094;2023-08-08T12:22:48;27.80;51.30
47174;DHT22;36730;49.036;9.094;2023-08-08T12:25:14;27.80;51.50
47174;DHT22;36730;49.036;9.094;2023-08-08T12:27:39;27.90;50.90
47174;DHT22;36730;49.036;9.094;2023-08-08T12:30:05;27.90;50.70
47174;DHT22;36730;49.036;9.094;2023-08-08T12:32:31;28.00;50.90
47174;DHT22;36730;49.036;9.094;2023-08-08T12:34:58;28.00;51.40
47174;DHT22;36730;49.036;9.094;2023-08-08T12:37:23;28.10;51.10
47174;DHT22;36730;49.036;9.094;2023-08-08T12:39:49;28.10;50.60
47174;DHT22;36730;49.036;9.094;2023-08-08T12:42:15;28.20;51.10
47174;DHT22;36730;49.036;9.094;2023-08-08T12:44:41;28.20;50.20
47174;DHT22;36730;49.036;9.094;2023-08-08T12:47:06;28.30;51.00
47174;DHT22;36730;49.036;9.094;2023-08-08T12:49:32;28.30;49.90
47174;DHT22;36730;49.036;9.094;2023-08-08T12:51:57;28.30;50.40
47174;DHT22;36730;49.036;9.094;2023-08-08T12:54:23;28.30;50.80
47174;DHT22;36730;49.036;9.094;2023-08-08T12:56:48;28.30;50.20
47174;DHT22;36730;49.036;9.094;2023-08-08T12:59:14;28.30;49.90
47174;DHT22;36730;49.036;9.094;2023-08-08T13:01:39;28.40;49.80
47174;DHT22;36730;49.036;9.094;2023-08-08T13:04:05;28.40;50.10
47174;DHT22;36730;49.036;9.094;2023-08-08T13:06:30;28.40;50.20
47174;DHT22;36730;49.036;9.094;2023-08-08T13:08:56;28.40;49.00
47174;DHT22;36730;49.036;9.094;2023-08-08T13:11:22;28.40;48.90
47174;DHT22;36730;49.036;9.094;2023-08-08T13:13:47;28.30;49.20
47174;DHT22;36730;49.036;9.094;2023-08-08T13:16:13;28.30;48.90
47174;DHT22;36730;49.036;9.094;2023-08-08T13:18:39;28.30;48.80
47174;DHT22;36730;49.036;9.094;2023-08-08T13:21:05;28.20;48.90
47174;DHT22;36730;49.036;9.094;2023-08-08T13:23:31;28.20;49.50
47174;DHT22;36730;49.036;9.094;2023-08-08T13:25:56;28.20;49.70
47174;DHT22;36730;49.036;9.094;2023-08-08T13:28:22;28.30;49.50
47174;DHT22;36730;49.036;9.094;2023-08-08T13:30:48;28.20;49.90
47174;DHT22;36730;49.036;9.094;2023-08-08T13:33:13;28.20;49.50
47174;DHT22;36730;49.036;9.094;2023-08-08T13:35:39;28.10;49.40
47174;DHT22;36730;49.036;9.094;2023-08-08T13:38:04;28.10;49.70
47174;DHT22;36730;49.036;9.094;2023-08-08T13:40:30;28.10;50.20
47174;DHT22;36730;49.036;9.094;2023-08-08T13:42:55;28.10;49.90
47174;DHT22;36730;49.036;9.094;2023-08-08T13:45:21;28.10;49.80
47174;DHT22;36730;49.036;9.094;2023-08-08T13:47:48;28.00;49.50
47174;DHT22;36730;49.036;9.094;2023-08-08T13:50:14;28.00;50.30
47174;DHT22;36730;49.036;9.094;2023-08-08T13:52:40;27.90;50.00
47174;DHT22;36730;49.036;9.094;2023-08-08T13:55:08;27.90;49.60
47174;DHT22;36730;49.036;9.094;2023-08-08T13:57:34;27.90;49.80
47174;DHT22;36730;49.036;9.094;2023-08-08T14:00:00;28.00;50.30
47174;DHT22;36730;49.036;9.094;2023-08-08T14:02:26;27.90;50.20
47174;DHT22;36730;49.036;9.094;2023-08-08T14:04:51;28.00;49.70
47174;DHT22;36730;49.036;9.094;2023-08-08T14:07:18;27.90;49.50
47174;DHT22;36730;49.036;9.094;2023-08-08T14:09:43;27.90;49.30
47174;DHT22;36730;49.036;9.094;2023-08-08T14:12:09;27.80;48.90
47174;DHT22;36730;49.036;9.094;2023-08-08T14:14:35;27.80;49.40
47174;DHT22;36730;49.036;9.094;2023-08-08T14:17:00;27.80;49.30
47174;DHT22;36730;49.036;9.094;2023-08-08T14:19:25;27.80;49.30
47174;DHT22;36730;49.036;9.094;2023-08-08T14:21:51;27.80;49.40
47174;DHT22;36730;49.036;9.094;2023-08-08T14:24:16;27.80;49.80
47174;DHT22;36730;49.036;9.094;2023-08-08T14:26:42;27.80;49.60
47174;DHT22;36730;49.036;9.094;2023-08-08T14:29:07;27.90;49.30
47174;DHT22;36730;49.036;9.094;2023-08-08T14:31:33;27.90;49.00
47174;DHT22;36730;49.036;9.094;2023-08-08T14:33:58;27.90;48.60
47174;DHT22;36730;49.036;9.094;2023-08-08T14:36:24;27.90;48.70
47174;DHT22;36730;49.036;9.094;2023-08-08T14:38:49;27.90;48.80
47174;DHT22;36730;49.036;9.094;2023-08-08T14:41:15;27.90;48.60
47174;DHT22;36730;49.036;9.094;2023-08-08T14:43:40;27.90;48.80
47174;DHT22;36730;49.036;9.094;2023-08-08T14:46:05;27.90;48.80
47174;DHT22;36730;49.036;9.094;2023-08-08T14:48:31;27.90;48.60
47174;DHT22;36730;49.036;9.094;2023-08-08T14:50:56;27.90;48.80
47174;DHT22;36730;49.036;9.094;2023-08-08T14:53:22;27.90;49.20
47174;DHT22;36730;49.036;9.094;2023-08-08T14:55:48;27.90;49.10
47174;DHT22;36730;49.036;9.094;2023-08-08T14:58:14;27.90;49.20
47174;DHT22;36730;49.036;9.094;2023-08-08T15:00:40;27.90;48.90
47174;DHT22;36730;49.036;9.094;2023-08-08T15:03:05;27.90;48.80
47174;DHT22;36730;49.036;9.094;2023-08-08T15:05:31;27.90;48.80
47174;DHT22;36730;49.036;9.094;2023-08-08T15:07:56;28.00;48.90
47174;DHT22;36730;49.036;9.094;2023-08-08T15:10:22;28.00;49.10
47174;DHT22;36730;49.036;9.094;2023-08-08T15:12:47;28.10;49.10
47174;DHT22;36730;49.036;9.094;2023-08-08T15:15:13;28.10;49.20
47174;DHT22;36730;49.036;9.094;2023-08-08T15:17:39;28.10;49.10
47174;DHT22;36730;49.036;9.094;2023-08-08T15:20:05;28.10;49.30